Terminal Aerodrome Forecast
Issued by NWS Memphis, TN

Home | Current Version | Previous Version | Text Only | Print | Product List | Glossary On
Versions: 1 2 3 4 5 6 7 8 9 10 11 12 13 14 15 16
000
FTUS44 KMEG 280234 AAA
TAFMKL
TAF AMD
KMKL 280234Z 2803/2824 17005KT P6SM VCSH FEW040 OVC150
     FM281600 17008KT P6SM VCTS SCT050CB OVC100
     FM282200 19006KT P6SM BKN050=

USA.gov is the U.S. government's official web portal to all federal, state and local government web resources and services.